Time;durP1;ratioP1;P1;durP2;ratioP2;P2;SDS_P1;SDS_P2;PMS_P1;PMS_P2;Temp;Humidity;BMP_temperature;BMP_pressure;BME280_temperature;BME280_humidity;BME280_pressure;Samples;Min_cycle;Max_cycle;Signal;HPM_P1;HPM_P2
2021/06/01 00:01:30;;;;;;;17.58;13.20;;;13.60;94.80;;;;;;5027464;28;20101;-61
2021/06/01 00:03:57;;;;;;;16.75;13.77;;;13.50;94.90;;;;;;5031101;28;20606;-61
2021/06/01 00:06:27;;;;;;;18.45;14.57;;;13.50;95.00;;;;;;5024313;28;20057;-61
2021/06/01 00:08:53;;;;;;;18.33;14.63;;;13.40;95.10;;;;;;5025989;28;20097;-60
2021/06/01 00:11:23;;;;;;;15.77;13.90;;;13.40;95.10;;;;;;5024533;28;20053;-61
2021/06/01 00:13:49;;;;;;;19.65;15.25;;;13.40;95.40;;;;;;5027534;28;20056;-61
2021/06/01 00:16:19;;;;;;;17.08;14.80;;;13.30;95.70;;;;;;5024902;28;20050;-60
2021/06/01 00:18:46;;;;;;;19.48;14.88;;;13.30;95.70;;;;;;5027503;28;20049;-61
2021/06/01 00:21:12;;;;;;;16.58;14.40;;;13.20;95.60;;;;;;5027752;28;20832;-60
2021/06/01 00:23:39;;;;;;;17.17;15.35;;;13.20;95.50;;;;;;5028290;28;20172;-61
2021/06/01 00:26:10;;;;;;;20.70;14.70;;;13.20;95.60;;;;;;5010464;28;20056;-61
2021/06/01 00:28:39;;;;;;;20.60;15.20;;;13.20;95.70;;;;;;5008260;28;20073;-61
2021/06/01 00:31:09;;;;;;;16.65;13.88;;;13.10;95.50;;;;;;5027407;28;20092;-61
2021/06/01 00:33:36;;;;;;;19.42;15.02;;;13.10;95.80;;;;;;5025876;28;20065;-61
2021/06/01 00:36:03;;;;;;;20.25;15.95;;;13.00;95.80;;;;;;5028240;28;20053;-61
2021/06/01 00:38:29;;;;;;;18.92;15.18;;;13.00;95.80;;;;;;5021540;28;20450;-61
2021/06/01 00:40:57;;;;;;;19.55;15.55;;;12.90;96.00;;;;;;5025019;28;20057;-61
2021/06/01 00:43:23;;;;;;;22.98;15.85;;;12.90;96.20;;;;;;5033602;28;20041;-61
2021/06/01 00:45:50;;;;;;;17.75;15.82;;;12.90;96.40;;;;;;5028069;28;20124;-61
2021/06/01 00:48:18;;;;;;;18.63;16.20;;;12.80;96.50;;;;;;5027450;28;20049;-60
2021/06/01 00:50:47;;;;;;;17.88;15.07;;;12.80;96.40;;;;;;5027387;28;20168;-62
2021/06/01 00:53:16;;;;;;;21.55;15.45;;;12.80;96.30;;;;;;5027417;28;20049;-61
2021/06/01 00:55:43;;;;;;;19.58;16.20;;;12.70;96.50;;;;;;5027794;28;20045;-61
2021/06/01 00:58:10;;;;;;;19.95;16.25;;;12.60;96.70;;;;;;5009608;28;20555;-60
2021/06/01 01:03:15;;;;;;;18.45;16.05;;;12.60;97.20;;;;;;5027353;28;20156;-62
2021/06/01 01:05:45;;;;;;;20.88;17.73;;;12.50;97.30;;;;;;5024755;28;20049;-60
2021/06/01 01:11:10;;;;;;;24.23;16.95;;;12.50;97.70;;;;;;5024698;28;20042;-61
2021/06/01 01:14:17;;;;;;;22.88;17.17;;;12.50;97.60;;;;;;5019788;28;20049;-61
2021/06/01 01:16:53;;;;;;;24.65;17.10;;;12.40;98.00;;;;;;5026824;28;20498;-61
2021/06/01 01:19:40;;;;;;;19.98;15.80;;;12.40;97.50;;;;;;5026627;28;20049;-61
2021/06/01 01:22:07;;;;;;;21.52;17.10;;;12.30;97.70;;;;;;5025642;28;20053;-61
2021/06/01 01:24:42;;;;;;;21.98;17.38;;;12.30;97.60;;;;;;5026406;28;20132;-61
2021/06/01 01:27:18;;;;;;;24.10;16.98;;;12.30;97.80;;;;;;4992695;28;20107;-61
2021/06/01 01:29:49;;;;;;;22.95;17.70;;;12.20;98.00;;;;;;5024260;28;20056;-61
2021/06/01 01:33:03;;;;;;;21.50;17.63;;;12.20;98.30;;;;;;5026608;28;20053;-61
2021/06/01 01:35:31;;;;;;;21.70;17.23;;;12.20;98.90;;;;;;5025617;28;20049;-61
2021/06/01 01:38:00;;;;;;;25.77;17.88;;;12.10;98.20;;;;;;5008901;28;20228;-61
2021/06/01 01:40:29;;;;;;;20.15;17.65;;;12.10;98.30;;;;;;5026025;28;20126;-61
2021/06/01 01:43:02;;;;;;;22.88;17.58;;;12.10;98.50;;;;;;5025885;28;20409;-62
2021/06/01 01:45:31;;;;;;;22.05;17.83;;;12.00;98.60;;;;;;5002769;28;20056;-61
2021/06/01 01:50:47;;;;;;;23.98;18.33;;;12.00;98.40;;;;;;5026130;28;20104;-61
2021/06/01 01:53:17;;;;;;;19.42;17.42;;;11.90;98.70;;;;;;5026038;28;20076;-61
2021/06/01 01:55:47;;;;;;;23.60;17.25;;;11.80;98.80;;;;;;5026470;28;20049;-60
2021/06/01 01:58:17;;;;;;;24.25;18.45;;;11.80;99.00;;;;;;5026504;28;20049;-61
2021/06/01 02:00:48;;;;;;;22.63;17.42;;;11.80;98.90;;;;;;5024328;28;20080;-60
2021/06/01 02:03:19;;;;;;;22.67;17.65;;;11.70;98.80;;;;;;5026143;28;20056;-61
2021/06/01 02:05:46;;;;;;;22.30;17.98;;;11.70;98.80;;;;;;5026520;28;20068;-60
2021/06/01 02:08:13;;;;;;;21.40;17.80;;;11.70;98.90;;;;;;5027106;28;20076;-61
2021/06/01 02:10:39;;;;;;;19.00;16.92;;;11.60;98.90;;;;;;5026638;28;20112;-60
2021/06/01 02:13:08;;;;;;;21.52;16.80;;;11.60;98.90;;;;;;5033109;28;20037;-60
2021/06/01 02:15:37;;;;;;;23.58;18.20;;;11.50;98.80;;;;;;5027009;28;20050;-61
2021/06/01 02:18:04;;;;;;;20.15;17.08;;;11.50;99.00;;;;;;5026518;28;20077;-61
2021/06/01 02:20:33;;;;;;;22.30;17.52;;;11.50;99.00;;;;;;5026737;28;20059;-60
2021/06/01 02:25:39;;;;;;;20.50;18.42;;;11.40;99.10;;;;;;5026082;28;20096;-60
2021/06/01 02:28:22;;;;;;;24.80;18.55;;;11.30;99.50;;;;;;5026120;28;20068;-61
2021/06/01 02:30:56;;;;;;;23.67;18.27;;;11.30;99.80;;;;;;5025593;28;20618;-61
2021/06/01 02:33:24;;;;;;;21.55;18.10;;;11.30;99.60;;;;;;5025215;28;20080;-61
2021/06/01 02:35:54;;;;;;;23.63;18.50;;;11.30;99.70;;;;;;4997244;28;20420;-61
2021/06/01 02:38:21;;;;;;;22.73;18.65;;;11.20;99.90;;;;;;5023493;28;20057;-61
2021/06/01 02:40:50;;;;;;;27.83;19.33;;;11.20;99.70;;;;;;5025953;28;20803;-60
2021/06/01 02:43:18;;;;;;;26.55;19.13;;;11.20;99.90;;;;;;5026004;28;20045;-61
2021/06/01 02:45:45;;;;;;;21.92;18.77;;;11.20;99.80;;;;;;5026178;28;20172;-62
2021/06/01 02:48:14;;;;;;;25.95;19.98;;;11.20;99.90;;;;;;5029440;28;20069;-61
2021/06/01 02:50:48;;;;;;;25.70;19.95;;;11.10;99.90;;;;;;5033902;28;20042;-61
2021/06/01 02:53:21;;;;;;;25.80;19.23;;;11.10;99.90;;;;;;5027652;28;20053;-61
2021/06/01 02:55:48;;;;;;;24.88;20.00;;;11.10;99.90;;;;;;5029371;28;20049;-61
2021/06/01 02:58:15;;;;;;;24.38;19.52;;;11.10;99.90;;;;;;5028826;28;20800;-61
2021/06/01 03:00:44;;;;;;;25.27;20.75;;;11.10;99.90;;;;;;5028107;28;20529;-61
2021/06/01 03:03:12;;;;;;;29.42;20.48;;;11.10;99.90;;;;;;5028829;28;20049;-61
2021/06/01 03:05:42;;;;;;;26.20;19.33;;;11.00;99.90;;;;;;5028860;28;20104;-61
2021/06/01 03:08:26;;;;;;;25.35;19.90;;;11.00;99.90;;;;;;5028959;28;20057;-61
2021/06/01 03:11:03;;;;;;;29.98;20.80;;;11.00;99.90;;;;;;5026940;28;20546;-61
2021/06/01 03:13:30;;;;;;;26.42;20.23;;;11.00;99.90;;;;;;5028534;28;20569;-61
2021/06/01 03:15:57;;;;;;;27.13;20.48;;;10.90;99.90;;;;;;5031069;28;20401;-60
2021/06/01 03:18:25;;;;;;;24.42;19.33;;;10.90;99.90;;;;;;5028730;28;20482;-60
2021/06/01 03:20:55;;;;;;;24.58;19.85;;;10.90;99.90;;;;;;5029427;28;20077;-60
2021/06/01 03:23:21;;;;;;;30.00;20.92;;;10.90;99.90;;;;;;5035833;28;20041;-61
2021/06/01 03:25:48;;;;;;;24.10;20.67;;;10.90;99.90;;;;;;5028986;28;20042;-60
2021/06/01 03:28:18;;;;;;;28.20;21.30;;;10.90;99.90;;;;;;5028259;28;20049;-61
2021/06/01 03:30:47;;;;;;;23.63;20.25;;;10.90;99.90;;;;;;5028175;28;20167;-60
2021/06/01 03:33:14;;;;;;;26.50;20.48;;;10.90;99.90;;;;;;5026992;28;20046;-61
2021/06/01 03:35:41;;;;;;;26.15;20.90;;;10.90;99.90;;;;;;5028417;28;20054;-60
2021/06/01 03:38:12;;;;;;;24.83;19.40;;;10.90;99.90;;;;;;5028141;28;20049;-60
2021/06/01 03:40:39;;;;;;;24.63;20.40;;;10.90;99.90;;;;;;5027770;28;20053;-61
2021/06/01 03:43:09;;;;;;;24.92;20.80;;;10.90;99.90;;;;;;5006655;28;20394;-60
2021/06/01 03:45:35;;;;;;;25.45;20.35;;;10.90;99.90;;;;;;5028292;28;20063;-60
2021/06/01 03:48:02;;;;;;;27.27;21.73;;;10.90;99.90;;;;;;5029135;28;20045;-61
2021/06/01 03:50:30;;;;;;;25.27;20.73;;;10.90;99.90;;;;;;5028100;28;20586;-61
2021/06/01 03:52:56;;;;;;;27.05;21.50;;;10.90;99.90;;;;;;5028378;28;20072;-61
2021/06/01 03:55:23;;;;;;;25.63;20.70;;;10.90;99.90;;;;;;5028903;28;20050;-61
2021/06/01 03:57:50;;;;;;;24.17;20.50;;;10.90;99.90;;;;;;5028044;28;20049;-61
2021/06/01 04:00:25;;;;;;;27.00;20.50;;;10.90;99.90;;;;;;5028936;28;20136;-62
2021/06/01 04:02:55;;;;;;;28.55;19.98;;;10.90;99.90;;;;;;5028012;28;20421;-61
2021/06/01 04:05:24;;;;;;;23.50;18.65;;;10.90;99.90;;;;;;5028497;28;20051;-61
2021/06/01 04:07:50;;;;;;;24.98;20.75;;;11.00;99.90;;;;;;5028527;28;20057;-61
2021/06/01 04:10:17;;;;;;;24.67;20.98;;;11.00;99.90;;;;;;5031548;28;20055;-61
2021/06/01 04:12:44;;;;;;;23.45;19.42;;;11.10;99.90;;;;;;5028656;28;20049;-61
2021/06/01 04:15:14;;;;;;;25.67;20.23;;;11.10;99.90;;;;;;5027885;28;20112;-61
2021/06/01 04:17:40;;;;;;;24.88;20.38;;;11.10;99.90;;;;;;5028044;28;20471;-61
2021/06/01 04:20:10;;;;;;;24.20;20.85;;;11.20;99.90;;;;;;5027599;28;20503;-60
2021/06/01 04:22:36;;;;;;;24.60;19.42;;;11.20;99.90;;;;;;5032790;28;20449;-61
2021/06/01 04:25:04;;;;;;;24.35;19.13;;;11.30;99.90;;;;;;5027694;28;20057;-60
2021/06/01 04:27:31;;;;;;;25.25;19.83;;;11.40;99.90;;;;;;5027996;28;20173;-61
2021/06/01 04:29:58;;;;;;;26.08;20.52;;;11.40;99.90;;;;;;5027415;28;20127;-61
2021/06/01 04:32:24;;;;;;;22.20;18.50;;;11.50;99.90;;;;;;5027493;28;20498;-62
2021/06/01 04:34:54;;;;;;;25.45;18.70;;;11.60;99.90;;;;;;5027200;28;20099;-61
2021/06/01 04:37:20;;;;;;;24.67;18.05;;;11.60;99.90;;;;;;5027269;28;20184;-61
2021/06/01 04:39:49;;;;;;;23.17;18.60;;;11.70;99.90;;;;;;5020562;28;20107;-61
2021/06/01 04:42:15;;;;;;;21.80;18.85;;;11.80;99.90;;;;;;5026453;28;20149;-61
2021/06/01 04:44:45;;;;;;;21.38;18.58;;;11.90;99.90;;;;;;5029762;28;20045;-60
2021/06/01 04:47:11;;;;;;;18.40;16.42;;;12.00;99.80;;;;;;5026674;28;20053;-61
2021/06/01 04:49:37;;;;;;;19.77;15.98;;;12.10;99.50;;;;;;5026868;28;20076;-60
2021/06/01 04:52:04;;;;;;;17.50;13.73;;;12.20;99.30;;;;;;5026708;28;20081;-61
2021/06/01 04:54:36;;;;;;;18.65;14.95;;;12.30;98.70;;;;;;5027259;28;20133;-61
2021/06/01 04:57:04;;;;;;;17.65;13.32;;;12.50;98.20;;;;;;5026644;28;20768;-61
2021/06/01 04:59:31;;;;;;;17.25;14.07;;;12.70;97.40;;;;;;5026554;28;20052;-61
2021/06/01 05:01:57;;;;;;;17.38;14.02;;;12.80;97.10;;;;;;5026520;28;20136;-61
2021/06/01 05:04:24;;;;;;;17.00;13.07;;;12.90;96.80;;;;;;5027132;28;20049;-61
2021/06/01 05:06:50;;;;;;;16.80;13.10;;;13.30;96.20;;;;;;5026277;28;20049;-60
2021/06/01 05:09:16;;;;;;;13.35;11.25;;;13.90;95.00;;;;;;5026485;28;20045;-60
2021/06/01 05:11:45;;;;;;;14.02;11.63;;;14.20;94.20;;;;;;5026133;28;20049;-60
2021/06/01 05:14:12;;;;;;;16.83;12.00;;;14.60;93.00;;;;;;5001610;28;20674;-61
2021/06/01 05:16:42;;;;;;;14.68;11.57;;;15.00;92.50;;;;;;5026730;28;20046;-61
2021/06/01 05:19:12;;;;;;;14.02;11.45;;;15.30;92.00;;;;;;5026462;28;20049;-60
2021/06/01 05:21:38;;;;;;;13.50;10.43;;;15.50;90.80;;;;;;5025915;28;20053;-60
2021/06/01 05:24:05;;;;;;;12.15;10.38;;;15.60;90.50;;;;;;5026354;28;20041;-60
2021/06/01 05:26:32;;;;;;;13.65;10.95;;;15.80;88.40;;;;;;5026184;28;20045;-60
2021/06/01 05:29:05;;;;;;;12.88;10.63;;;15.80;88.10;;;;;;5026428;28;20064;-61
2021/06/01 05:34:24;;;;;;;13.95;10.15;;;16.40;88.40;;;;;;5024662;28;20131;-62
2021/06/01 05:36:55;;;;;;;11.02;9.93;;;16.60;87.00;;;;;;5024021;28;20046;-64
2021/06/01 05:39:22;;;;;;;25.17;20.90;;;16.90;84.50;;;;;;5019482;28;20061;-63
2021/06/01 05:41:49;;;;;;;70.85;63.10;;;17.30;85.20;;;;;;5002583;28;20064;-64
2021/06/01 05:44:17;;;;;;;23.08;17.67;;;17.60;84.00;;;;;;5012720;28;20037;-64
2021/06/01 05:46:47;;;;;;;31.48;26.05;;;17.80;81.50;;;;;;5023514;28;20072;-64
2021/06/01 05:49:13;;;;;;;13.90;11.15;;;18.00;81.30;;;;;;5024195;28;20744;-63
2021/06/01 05:51:39;;;;;;;11.80;9.93;;;18.20;79.50;;;;;;5020913;28;20057;-61
2021/06/01 05:54:09;;;;;;;18.02;14.75;;;18.30;78.00;;;;;;5020574;28;20054;-63
2021/06/01 05:56:38;;;;;;;10.98;9.13;;;18.50;76.60;;;;;;5026653;28;20049;-62
2021/06/01 05:59:07;;;;;;;15.55;13.93;;;18.60;75.30;;;;;;5025933;28;20050;-60
2021/06/01 06:01:34;;;;;;;58.65;52.30;;;18.80;75.90;;;;;;5022339;28;20145;-63
2021/06/01 06:04:02;;;;;;;25.23;21.60;;;19.00;74.80;;;;;;5006619;28;20050;-63
2021/06/01 06:06:32;;;;;;;11.75;9.65;;;19.20;74.00;;;;;;5021589;28;20136;-63
2021/06/01 06:08:58;;;;;;;14.77;11.90;;;19.40;71.30;;;;;;5002966;28;20056;-62
2021/06/01 06:11:30;;;;;;;12.13;9.07;;;19.50;67.80;;;;;;5019424;28;20059;-65
2021/06/01 06:13:59;;;;;;;17.67;15.80;;;19.60;69.30;;;;;;5026390;28;20116;-62
2021/06/01 06:16:45;;;;;;;29.98;25.65;;;19.70;69.50;;;;;;5024271;28;20577;-63
2021/06/01 06:19:11;;;;;;;10.90;8.18;;;19.80;65.20;;;;;;5021627;28;20053;-64
2021/06/01 06:21:43;;;;;;;11.32;9.25;;;19.80;66.50;;;;;;5006793;28;20049;-61
2021/06/01 06:24:14;;;;;;;12.13;10.05;;;20.00;64.30;;;;;;5029383;28;20052;-62
2021/06/01 06:26:45;;;;;;;16.75;13.10;;;20.10;63.70;;;;;;5030983;28;20041;-66
2021/06/01 06:29:11;;;;;;;18.03;15.40;;;20.20;62.20;;;;;;5029290;28;20053;-62
2021/06/01 06:31:38;;;;;;;14.80;13.02;;;20.20;62.90;;;;;;5029559;28;20057;-64
2021/06/01 06:34:05;;;;;;;10.13;6.97;;;20.30;63.50;;;;;;5029535;28;20119;-64
2021/06/01 06:36:32;;;;;;;10.82;9.70;;;20.30;63.00;;;;;;5029436;28;20561;-64
2021/06/01 06:38:59;;;;;;;11.48;10.07;;;20.50;65.30;;;;;;5028067;28;20592;-65
2021/06/01 06:41:28;;;;;;;12.65;8.77;;;20.60;63.40;;;;;;5028542;28;20053;-64
2021/06/01 06:43:57;;;;;;;12.98;11.00;;;20.70;62.80;;;;;;5022083;28;20156;-66
2021/06/01 06:46:28;;;;;;;13.45;8.10;;;20.80;61.80;;;;;;5025030;28;20050;-63
2021/06/01 06:48:57;;;;;;;10.07;7.75;;;21.00;60.50;;;;;;5014410;28;20077;-61
2021/06/01 06:51:26;;;;;;;7.95;6.70;;;21.10;58.80;;;;;;5025977;28;20075;-62
2021/06/01 06:53:57;;;;;;;6.68;5.97;;;21.00;58.80;;;;;;5027796;28;20052;-61
2021/06/01 06:56:26;;;;;;;7.05;6.10;;;21.20;60.00;;;;;;5028231;28;20140;-58
2021/06/01 06:58:55;;;;;;;7.50;6.03;;;21.30;59.50;;;;;;5028305;28;20049;-57
2021/06/01 07:01:22;;;;;;;8.05;5.20;;;21.30;58.60;;;;;;5030079;28;20054;-57
2021/06/01 07:03:49;;;;;;;7.00;5.47;;;21.60;57.70;;;;;;5029429;28;20140;-58
2021/06/01 07:06:16;;;;;;;7.72;5.10;;;21.70;59.00;;;;;;5012006;28;20049;-58
2021/06/01 07:08:49;;;;;;;7.63;5.30;;;21.70;56.10;;;;;;5029132;28;20081;-58
2021/06/01 07:11:19;;;;;;;8.52;4.80;;;21.90;54.80;;;;;;5030322;28;20053;-58
2021/06/01 07:14:03;;;;;;;8.63;4.55;;;21.90;55.30;;;;;;5028297;28;20049;-58
2021/06/01 07:16:34;;;;;;;6.18;4.22;;;21.60;54.60;;;;;;5010217;28;20064;-58
2021/06/01 07:19:02;;;;;;;7.15;4.55;;;22.00;54.40;;;;;;5009847;28;20058;-58
2021/06/01 07:21:32;;;;;;;6.43;4.57;;;22.20;53.30;;;;;;5023812;28;20057;-58
2021/06/01 07:24:01;;;;;;;9.45;4.15;;;22.30;50.90;;;;;;5029985;28;20128;-58
2021/06/01 07:26:30;;;;;;;10.20;4.40;;;22.40;52.90;;;;;;5029928;28;20080;-58
2021/06/01 07:29:06;;;;;;;6.25;3.42;;;22.70;51.20;;;;;;5030006;28;20228;-57
2021/06/01 07:31:54;;;;;;;6.30;3.88;;;22.60;49.60;;;;;;5029636;28;20565;-57
2021/06/01 07:34:25;;;;;;;7.50;5.95;;;22.80;51.10;;;;;;5029458;28;20136;-58
2021/06/01 07:36:52;;;;;;;5.40;4.13;;;23.00;51.20;;;;;;5029099;28;20050;-57
2021/06/01 07:39:21;;;;;;;7.80;4.90;;;23.00;50.20;;;;;;5029593;28;20064;-58
2021/06/01 07:41:52;;;;;;;7.53;4.40;;;23.10;49.40;;;;;;5029731;28;20076;-58
2021/06/01 07:44:22;;;;;;;5.18;3.42;;;23.30;49.90;;;;;;5011729;28;20076;-58
2021/06/01 07:46:49;;;;;;;5.53;3.40;;;23.40;49.80;;;;;;5029024;28;20770;-58
2021/06/01 07:49:21;;;;;;;6.57;3.10;;;23.50;49.30;;;;;;5028732;28;20049;-58
2021/06/01 07:51:52;;;;;;;6.90;3.75;;;23.80;44.70;;;;;;5028636;28;20046;-59
2021/06/01 07:54:21;;;;;;;7.13;3.97;;;23.90;45.00;;;;;;5029134;28;20159;-58
2021/06/01 07:56:48;;;;;;;6.15;3.22;;;23.50;44.20;;;;;;5011431;28;20150;-58
2021/06/01 07:59:37;;;;;;;4.75;3.13;;;23.80;43.80;;;;;;5013765;28;20509;-58
2021/06/01 08:02:04;;;;;;;4.00;2.80;;;23.90;43.30;;;;;;5028464;28;20064;-59
2021/06/01 08:04:34;;;;;;;7.03;3.22;;;24.00;42.40;;;;;;5029301;28;20041;-58
2021/06/01 08:07:09;;;;;;;5.65;3.00;;;24.30;41.80;;;;;;5016634;28;20073;-59
2021/06/01 08:09:35;;;;;;;5.35;2.78;;;24.60;41.90;;;;;;5009271;28;20050;-59
2021/06/01 08:12:04;;;;;;;4.75;2.80;;;24.40;39.90;;;;;;5020559;28;20045;-57
2021/06/01 08:14:49;;;;;;;4.70;3.30;;;24.60;40.00;;;;;;5028717;28;20057;-58
2021/06/01 08:17:19;;;;;;;5.28;2.58;;;24.60;40.50;;;;;;5028536;28;20064;-59
2021/06/01 08:19:52;;;;;;;4.18;2.78;;;24.60;39.20;;;;;;5028533;28;20123;-59
2021/06/01 08:24:51;;;;;;;7.05;2.65;;;24.90;35.30;;;;;;5028126;28;20041;-59
2021/06/01 08:27:17;;;;;;;6.30;2.60;;;25.10;37.70;;;;;;5034089;28;20473;-59
2021/06/01 08:29:49;;;;;;;4.30;2.55;;;25.10;36.00;;;;;;5026520;28;20132;-59
2021/06/01 08:32:18;;;;;;;6.45;3.33;;;25.20;37.00;;;;;;5028193;28;20054;-59
2021/06/01 08:34:47;;;;;;;4.35;2.47;;;25.30;36.80;;;;;;5028296;28;20060;-59
2021/06/01 08:37:15;;;;;;;3.15;2.08;;;25.50;36.70;;;;;;5032274;28;20072;-60
2021/06/01 08:39:42;;;;;;;4.03;2.75;;;25.50;35.50;;;;;;5025682;28;20049;-62
2021/06/01 08:42:13;;;;;;;7.60;6.38;;;25.40;35.30;;;;;;5026927;28;20045;-54
2021/06/01 08:44:42;;;;;;;18.55;15.82;;;25.60;35.70;;;;;;5026027;28;20076;-51
2021/06/01 08:47:09;;;;;;;12.77;10.30;;;25.80;35.00;;;;;;5025921;28;20450;-59
2021/06/01 08:49:37;;;;;;;7.88;6.32;;;26.00;34.60;;;;;;5027669;28;20504;-61
2021/06/01 08:52:03;;;;;;;17.92;15.63;;;26.00;34.40;;;;;;5026732;28;20136;-61
2021/06/01 08:54:35;;;;;;;5.85;3.90;;;25.80;33.60;;;;;;5027464;28;20050;-59
2021/06/01 08:57:04;;;;;;;12.50;10.77;;;26.30;35.00;;;;;;5027391;28;20052;-60
2021/06/01 08:59:34;;;;;;;19.23;17.35;;;26.50;34.40;;;;;;5029114;28;20069;-61
2021/06/01 09:02:01;;;;;;;4.88;3.20;;;26.30;31.40;;;;;;5031157;28;20061;-61
2021/06/01 09:04:54;;;;;;;8.20;7.05;;;26.40;32.90;;;;;;5030843;28;20783;-61
2021/06/01 09:10:44;;;;;;;4.90;2.33;;;26.50;32.80;;;;;;5025431;28;20787;-61
2021/06/01 09:21:33;;;;;;;9.43;6.68;;;26.90;32.80;;;;;;5025668;28;20049;-60
2021/06/01 09:24:03;;;;;;;9.15;6.40;;;26.90;32.20;;;;;;5018705;28;20152;-61
2021/06/01 09:26:54;;;;;;;16.67;14.50;;;27.00;31.70;;;;;;5026804;28;20041;-61
2021/06/01 09:29:24;;;;;;;7.15;4.18;;;27.20;31.40;;;;;;5025586;28;20050;-60
2021/06/01 09:32:06;;;;;;;5.13;3.30;;;27.30;31.90;;;;;;5021781;28;20125;-62
2021/06/01 09:34:45;;;;;;;5.60;3.03;;;27.60;30.50;;;;;;5018988;28;20049;-60
2021/06/01 09:37:28;;;;;;;14.18;11.15;;;27.80;30.80;;;;;;5020635;28;20050;-61
2021/06/01 09:40:07;;;;;;;6.60;3.30;;;27.80;31.40;;;;;;5022685;28;20448;-64
2021/06/01 09:42:35;;;;;;;9.95;8.48;;;28.00;31.10;;;;;;5019472;28;20410;-62
2021/06/01 09:45:21;;;;;;;8.60;5.68;;;28.10;30.70;;;;;;5028628;28;20052;-63
2021/06/01 09:47:50;;;;;;;10.68;9.60;;;27.80;29.30;;;;;;5022159;28;20041;-61
2021/06/01 09:52:57;;;;;;;10.15;6.57;;;27.90;31.30;;;;;;5023929;28;20053;-63
2021/06/01 09:55:36;;;;;;;3.78;2.03;;;28.00;30.70;;;;;;5021395;28;20112;-63
2021/06/01 09:58:07;;;;;;;6.00;4.80;;;28.20;30.00;;;;;;5023343;28;20049;-64
2021/06/01 10:00:36;;;;;;;15.43;13.95;;;28.50;30.00;;;;;;5023417;28;20050;-62
2021/06/01 10:03:05;;;;;;;11.38;8.90;;;28.30;30.30;;;;;;5018185;28;20046;-63
2021/06/01 10:05:40;;;;;;;18.50;16.70;;;28.50;29.30;;;;;;5019938;28;20112;-60
2021/06/01 10:08:18;;;;;;;5.25;3.65;;;28.50;29.50;;;;;;5018482;28;20512;-60
2021/06/01 10:10:55;;;;;;;7.60;6.70;;;28.20;28.20;;;;;;5025630;28;20085;-64
2021/06/01 10:13:24;;;;;;;6.22;4.78;;;28.20;29.00;;;;;;5019426;28;20045;-60
2021/06/01 10:15:52;;;;;;;4.50;2.53;;;28.40;30.40;;;;;;5028790;28;20125;-61
2021/06/01 10:18:22;;;;;;;4.47;2.50;;;28.40;29.30;;;;;;5029899;28;20045;-61
2021/06/01 10:20:50;;;;;;;3.35;2.08;;;28.80;29.50;;;;;;5022195;28;20129;-61
2021/06/01 10:23:28;;;;;;;4.18;3.35;;;28.80;29.10;;;;;;5020551;28;20053;-60
2021/06/01 10:25:56;;;;;;;2.58;1.70;;;28.40;28.30;;;;;;5026319;28;20044;-61
2021/06/01 10:28:29;;;;;;;4.82;1.60;;;28.70;29.20;;;;;;5026456;28;20049;-62
2021/06/01 10:30:57;;;;;;;3.80;1.20;;;28.60;28.20;;;;;;5026914;28;20428;-62
2021/06/01 10:33:26;;;;;;;2.42;1.50;;;28.60;27.70;;;;;;5038163;28;20041;-61
2021/06/01 10:50:06;;;;;;;3.72;2.55;;;28.80;26.90;;;;;;4956801;28;20046;-60
2021/06/01 10:52:33;;;;;;;6.18;3.58;;;29.10;28.60;;;;;;4953808;28;20186;-59
2021/06/01 10:55:09;;;;;;;6.32;4.45;;;28.60;27.70;;;;;;4954921;28;20082;-59
2021/06/01 10:57:58;;;;;;;7.13;5.57;;;29.20;28.10;;;;;;4957147;28;20638;-58
2021/06/01 11:03:14;;;;;;;4.22;2.03;;;29.20;27.30;;;;;;4964380;28;20411;-61
2021/06/01 11:05:59;;;;;;;5.90;2.53;;;29.90;28.00;;;;;;4948101;28;20801;-61
2021/06/01 11:08:43;;;;;;;4.00;2.25;;;29.90;26.60;;;;;;4965918;28;20054;-61
2021/06/01 11:11:22;;;;;;;1.80;1.30;;;29.40;26.30;;;;;;4963991;28;20145;-61
2021/06/01 11:13:59;;;;;;;4.07;2.08;;;29.30;27.00;;;;;;4967225;28;20610;-58
2021/06/01 11:16:26;;;;;;;2.50;1.30;;;29.40;26.70;;;;;;4970166;28;20055;-62
2021/06/01 11:19:02;;;;;;;6.55;4.68;;;28.80;26.60;;;;;;4951659;28;20106;-59
2021/06/01 11:35:49;;;;;;;4.05;1.40;;;29.50;26.10;;;;;;5034115;28;20100;-60
2021/06/01 11:38:20;;;;;;;1.98;1.25;;;29.40;26.00;;;;;;5028364;28;20053;-60
2021/06/01 11:43:19;;;;;;;2.40;1.40;;;29.40;26.80;;;;;;5028907;28;20053;-60
2021/06/01 11:51:14;;;;;;;3.33;1.40;;;29.30;26.50;;;;;;5027919;28;20045;-60
2021/06/01 11:53:49;;;;;;;1.70;1.40;;;29.40;26.00;;;;;;5002510;28;20564;-60
2021/06/01 11:56:30;;;;;;;5.60;2.50;;;29.90;27.10;;;;;;5026022;28;20053;-62
2021/06/01 12:05:01;;;;;;;3.67;1.40;;;29.60;26.70;;;;;;5024692;28;20798;-60
2021/06/01 12:19:06;;;;;;;4.18;2.83;;;29.70;26.20;;;;;;5018490;28;20637;-60
2021/06/01 12:21:37;;;;;;;7.13;6.15;;;30.10;26.40;;;;;;5013627;28;20061;-60
2021/06/01 12:24:26;;;;;;;2.90;1.70;;;29.80;26.10;;;;;;5023681;28;20049;-61
2021/06/01 12:32:27;;;;;;;7.05;5.63;;;30.00;25.90;;;;;;5024454;28;20432;-60
2021/06/01 13:19:50;;;;;;;12.65;10.52;;;30.30;27.50;;;;;;5009364;28;20147;-62
2021/06/01 13:39:00;;;;;;;4.78;3.05;;;30.60;27.70;;;;;;5026156;28;20077;-62
2021/06/01 13:46:48;;;;;;;2.55;1.67;;;30.40;27.60;;;;;;5029305;28;20677;-62
2021/06/01 13:49:19;;;;;;;4.53;3.25;;;30.40;27.60;;;;;;5026175;28;20127;-63
2021/06/01 14:00:58;;;;;;;4.90;2.88;;;30.40;27.50;;;;;;4926013;29;20052;-62
2021/06/01 14:11:26;;;;;;;5.15;3.22;;;30.50;28.00;;;;;;4927016;29;20561;-63
2021/06/01 14:30:18;;;;;;;6.10;3.30;;;30.20;28.30;;;;;;4864442;29;20057;-63
2021/06/01 14:38:24;;;;;;;9.10;7.15;;;30.50;28.60;;;;;;4960697;28;20066;-63
2021/06/01 14:55:19;;;;;;;;;;;28.90;29.20;;;;;;4917645;29;20122;-63
2021/06/01 15:09:04;;;;;;;5.75;4.00;;;27.70;31.50;;;;;;4909771;29;20055;-62
2021/06/01 15:48:23;;;;;;;4.05;2.80;;;26.80;33.20;;;;;;4910730;29;20055;-64
2021/06/01 15:50:39;;;;;;;12.10;9.95;;;26.70;34.10;;;;;;4923483;29;20055;-64
2021/06/01 16:13:11;;;;;;;4.35;2.70;;;26.20;34.00;;;;;;4927339;29;20138;-66
2021/06/01 16:32:24;;;;;;;4.28;2.53;;;26.00;34.50;;;;;;5023571;28;20928;-63
2021/06/01 17:05:23;;;;;;;4.00;3.22;;;25.10;36.60;;;;;;5026052;28;20052;-65
2021/06/01 17:13:12;;;;;;;19.23;16.27;;;25.00;37.90;;;;;;5030642;28;20087;-64
2021/06/01 17:15:40;;;;;;;6.88;3.47;;;24.80;37.90;;;;;;5025656;28;20056;-63
2021/06/01 17:18:31;;;;;;;11.48;9.77;;;24.80;38.00;;;;;;5027269;28;20107;-65
2021/06/01 17:35:06;;;;;;;8.30;5.93;;;24.60;39.20;;;;;;4964870;28;20062;-64
2021/06/01 17:37:34;;;;;;;7.10;5.47;;;24.60;39.30;;;;;;4961732;28;20163;-64
2021/06/01 17:40:01;;;;;;;4.82;3.60;;;24.60;39.40;;;;;;4959646;28;20062;-63
2021/06/01 17:42:32;;;;;;;5.70;3.95;;;24.50;39.60;;;;;;4964623;28;20585;-62
2021/06/01 17:45:00;;;;;;;25.92;20.65;;;24.40;40.00;;;;;;4964518;28;20058;-58
2021/06/01 17:47:52;;;;;;;6.40;4.28;;;24.40;40.20;;;;;;4963770;28;20055;-61
2021/06/01 17:50:20;;;;;;;8.00;5.85;;;24.40;40.60;;;;;;4964472;28;20090;-61
2021/06/01 17:52:52;;;;;;;6.00;4.50;;;24.40;40.60;;;;;;4936138;28;20055;-61
2021/06/01 17:55:23;;;;;;;7.78;6.22;;;24.40;40.60;;;;;;4964222;28;20516;-60
2021/06/01 17:57:50;;;;;;;8.02;4.65;;;24.30;40.80;;;;;;4965232;28;20058;-61
2021/06/01 18:00:17;;;;;;;9.82;8.40;;;24.30;41.20;;;;;;4982994;28;20053;-61
2021/06/01 18:02:47;;;;;;;5.57;4.22;;;24.30;41.40;;;;;;5024672;28;20478;-60
2021/06/01 18:05:18;;;;;;;5.05;3.80;;;24.20;41.20;;;;;;5030270;28;20057;-60
2021/06/01 19:06:22;;;;;;;14.05;10.38;;;22.10;55.00;;;;;;4904925;29;20147;-62
2021/06/01 19:25:38;;;;;;;13.70;9.45;;;21.40;57.00;;;;;;4989095;28;20137;-62
2021/06/01 19:50:16;;;;;;;11.35;5.55;;;20.10;63.90;;;;;;5025876;28;20504;-53
2021/06/01 19:52:44;;;;;;;14.13;6.80;;;20.00;64.50;;;;;;5026670;28;20083;-53
2021/06/01 19:55:11;;;;;;;9.50;6.28;;;19.80;65.20;;;;;;5026933;28;20033;-55
2021/06/01 19:57:41;;;;;;;13.88;6.35;;;19.70;65.70;;;;;;5025133;28;20053;-55
2021/06/01 20:00:10;;;;;;;8.88;6.50;;;19.60;66.50;;;;;;5016352;28;20060;-50
2021/06/01 20:02:41;;;;;;;7.57;5.13;;;19.50;66.60;;;;;;5024522;28;20132;-55
2021/06/01 20:05:12;;;;;;;8.32;6.32;;;19.40;67.20;;;;;;5026453;28;20077;-51
2021/06/01 20:07:39;;;;;;;9.37;6.23;;;19.30;67.90;;;;;;5020129;28;20041;-57
2021/06/01 20:10:08;;;;;;;9.55;5.25;;;19.30;68.20;;;;;;5027678;28;20053;-55
2021/06/01 20:12:35;;;;;;;10.93;7.15;;;19.20;68.50;;;;;;5026253;28;20816;-55
2021/06/01 20:15:01;;;;;;;6.90;5.60;;;19.00;69.20;;;;;;5015440;28;20058;-56
2021/06/01 20:17:33;;;;;;;10.73;8.32;;;19.00;69.10;;;;;;5017212;28;20064;-51